Decoded Metar for KTEW (MASON in MI, USA) (IATA:TEW) | Meteo·Mobile Aviation Weather
aviador You're here:

KTEW Decoded Metar

MASON in MI, USA
Report Time2019-05-19 22:15:00
UTC Time2019-05-19 22:28:23
Flight Rules vfr VFR
Wind180° at 06 kt
W.Decomp.*RWY 10: 0.5 kt HW 6.0 kt RCW
Visibility9999 m
Phenomena:N/A
Clouds:Broken 032 Hf
Expected CloudBase > 2,000 ft AGL from Temp-Dew spread
Ceiling3,200 ft
Temp20°C (ISA +7)
Dew Point15°C (73% RH)
AAT19.5°C
QNH1004 hPa
Density Alt2,251 ft
Elevation919 ft
Report Wrong Elevation
Raw Report
KTEW 192215Z AUTO 18006KT 10SM BKN032 20/15 A2966 RMK AO2
T02000146=

Extra information for KTEW:More info

Metar Taf Metar & Taf Last 4 Metars F.Rules Stats Wind Profile Meteogram Temp Stats Airport Information Weather charts Add Link Nearby VenuesMetar ALERT Operation Metar Decoded Social comments

AIRNAV info for KTEW